sensor_id;sensor_type;location;lat;lon;timestamp;P1;durP1;ratioP1;P2;durP2;ratioP2
40489;SDS011;26196;52.302;10.572;2023-06-04T00:00:46;3.73;;;1.43;;
40489;SDS011;26196;52.302;10.572;2023-06-04T00:04:47;2.50;;;1.15;;
40489;SDS011;26196;52.302;10.572;2023-06-04T00:08:47;3.92;;;1.20;;
40489;SDS011;26196;52.302;10.572;2023-06-04T00:12:47;1.27;;;1.03;;
40489;SDS011;26196;52.302;10.572;2023-06-04T00:16:48;2.25;;;1.42;;
40489;SDS011;26196;52.302;10.572;2023-06-04T00:20:48;1.08;;;0.70;;
40489;SDS011;26196;52.302;10.572;2023-06-04T00:24:49;1.57;;;0.83;;
40489;SDS011;26196;52.302;10.572;2023-06-04T00:28:49;1.50;;;1.00;;
40489;SDS011;26196;52.302;10.572;2023-06-04T00:32:49;1.05;;;0.70;;
40489;SDS011;26196;52.302;10.572;2023-06-04T00:36:50;1.10;;;0.80;;
40489;SDS011;26196;52.302;10.572;2023-06-04T00:40:50;2.65;;;1.27;;
40489;SDS011;26196;52.302;10.572;2023-06-04T00:44:50;5.87;;;1.20;;
40489;SDS011;26196;52.302;10.572;2023-06-04T00:48:51;1.80;;;1.10;;
40489;SDS011;26196;52.302;10.572;2023-06-04T00:52:52;1.20;;;0.90;;
40489;SDS011;26196;52.302;10.572;2023-06-04T00:56:54;1.40;;;0.75;;
40489;SDS011;26196;52.302;10.572;2023-06-04T01:00:54;1.27;;;0.90;;
40489;SDS011;26196;52.302;10.572;2023-06-04T01:05:11;1.85;;;1.05;;
40489;SDS011;26196;52.302;10.572;2023-06-04T01:09:18;1.05;;;0.60;;
40489;SDS011;26196;52.302;10.572;2023-06-04T01:13:18;1.33;;;1.02;;
40489;SDS011;26196;52.302;10.572;2023-06-04T01:17:23;1.15;;;0.57;;
40489;SDS011;26196;52.302;10.572;2023-06-04T01:21:36;2.75;;;1.00;;
40489;SDS011;26196;52.302;10.572;2023-06-04T01:25:39;1.50;;;0.85;;
40489;SDS011;26196;52.302;10.572;2023-06-04T01:29:41;1.27;;;0.77;;
40489;SDS011;26196;52.302;10.572;2023-06-04T01:33:42;3.17;;;0.70;;
40489;SDS011;26196;52.302;10.572;2023-06-04T01:37:42;1.88;;;0.85;;
40489;SDS011;26196;52.302;10.572;2023-06-04T01:41:42;0.90;;;0.60;;
40489;SDS011;26196;52.302;10.572;2023-06-04T01:45:43;1.00;;;0.60;;
40489;SDS011;26196;52.302;10.572;2023-06-04T01:49:43;1.02;;;0.80;;
40489;SDS011;26196;52.302;10.572;2023-06-04T01:53:44;1.20;;;0.70;;
40489;SDS011;26196;52.302;10.572;2023-06-04T01:57:45;1.27;;;0.60;;
40489;SDS011;26196;52.302;10.572;2023-06-04T02:01:46;1.15;;;0.68;;
40489;SDS011;26196;52.302;10.572;2023-06-04T02:05:46;1.23;;;1.03;;
40489;SDS011;26196;52.302;10.572;2023-06-04T02:09:47;0.75;;;0.68;;
40489;SDS011;26196;52.302;10.572;2023-06-04T02:13:48;1.08;;;0.70;;
40489;SDS011;26196;52.302;10.572;2023-06-04T02:17:48;0.90;;;0.73;;
40489;SDS011;26196;52.302;10.572;2023-06-04T02:21:50;1.25;;;0.60;;
40489;SDS011;26196;52.302;10.572;2023-06-04T02:25:50;2.33;;;1.10;;
40489;SDS011;26196;52.302;10.572;2023-06-04T02:29:50;2.60;;;0.70;;
40489;SDS011;26196;52.302;10.572;2023-06-04T02:33:51;0.93;;;0.50;;
40489;SDS011;26196;52.302;10.572;2023-06-04T02:37:51;1.30;;;0.70;;
40489;SDS011;26196;52.302;10.572;2023-06-04T02:41:52;1.20;;;0.57;;
40489;SDS011;26196;52.302;10.572;2023-06-04T02:45:52;2.53;;;0.95;;
40489;SDS011;26196;52.302;10.572;2023-06-04T02:49:52;2.05;;;0.63;;
40489;SDS011;26196;52.302;10.572;2023-06-04T02:53:53;1.10;;;0.52;;
40489;SDS011;26196;52.302;10.572;2023-06-04T02:57:53;0.90;;;0.60;;
40489;SDS011;26196;52.302;10.572;2023-06-04T03:01:53;2.17;;;0.80;;
40489;SDS011;26196;52.302;10.572;2023-06-04T03:05:54;1.40;;;1.07;;
40489;SDS011;26196;52.302;10.572;2023-06-04T03:09:54;1.20;;;0.68;;
40489;SDS011;26196;52.302;10.572;2023-06-04T03:13:56;0.60;;;0.50;;
40489;SDS011;26196;52.302;10.572;2023-06-04T03:17:56;0.83;;;0.67;;
40489;SDS011;26196;52.302;10.572;2023-06-04T03:21:57;0.90;;;0.47;;
40489;SDS011;26196;52.302;10.572;2023-06-04T03:25:57;1.38;;;0.60;;
40489;SDS011;26196;52.302;10.572;2023-06-04T03:29:57;1.40;;;0.87;;
40489;SDS011;26196;52.302;10.572;2023-06-04T03:33:58;1.25;;;0.75;;
40489;SDS011;26196;52.302;10.572;2023-06-04T03:37:58;0.70;;;0.50;;
40489;SDS011;26196;52.302;10.572;2023-06-04T03:41:59;0.93;;;0.50;;
40489;SDS011;26196;52.302;10.572;2023-06-04T03:46:00;2.05;;;0.47;;
40489;SDS011;26196;52.302;10.572;2023-06-04T03:50:01;1.38;;;0.52;;
40489;SDS011;26196;52.302;10.572;2023-06-04T03:54:02;3.05;;;0.70;;
40489;SDS011;26196;52.302;10.572;2023-06-04T03:58:02;0.70;;;0.50;;
40489;SDS011;26196;52.302;10.572;2023-06-04T04:02:03;0.88;;;0.50;;
40489;SDS011;26196;52.302;10.572;2023-06-04T04:06:05;1.27;;;0.40;;
40489;SDS011;26196;52.302;10.572;2023-06-04T04:10:05;1.13;;;0.60;;
40489;SDS011;26196;52.302;10.572;2023-06-04T04:14:06;0.80;;;0.52;;
40489;SDS011;26196;52.302;10.572;2023-06-04T04:18:06;0.83;;;0.60;;
40489;SDS011;26196;52.302;10.572;2023-06-04T04:22:10;1.38;;;0.57;;
40489;SDS011;26196;52.302;10.572;2023-06-04T04:26:11;0.85;;;0.50;;
40489;SDS011;26196;52.302;10.572;2023-06-04T04:30:16;1.13;;;0.52;;
40489;SDS011;26196;52.302;10.572;2023-06-04T04:34:17;0.95;;;0.70;;
40489;SDS011;26196;52.302;10.572;2023-06-04T04:38:21;1.10;;;0.70;;
40489;SDS011;26196;52.302;10.572;2023-06-04T04:42:23;1.20;;;0.55;;
40489;SDS011;26196;52.302;10.572;2023-06-04T04:46:24;0.98;;;0.55;;
40489;SDS011;26196;52.302;10.572;2023-06-04T04:50:24;0.70;;;0.60;;
40489;SDS011;26196;52.302;10.572;2023-06-04T04:54:25;1.00;;;0.60;;
40489;SDS011;26196;52.302;10.572;2023-06-04T04:58:25;1.00;;;0.47;;
40489;SDS011;26196;52.302;10.572;2023-06-04T05:02:25;0.88;;;0.50;;
40489;SDS011;26196;52.302;10.572;2023-06-04T05:06:26;0.60;;;0.45;;
40489;SDS011;26196;52.302;10.572;2023-06-04T05:10:26;0.80;;;0.52;;
40489;SDS011;26196;52.302;10.572;2023-06-04T05:14:27;0.65;;;0.57;;
40489;SDS011;26196;52.302;10.572;2023-06-04T05:18:28;1.23;;;0.70;;
40489;SDS011;26196;52.302;10.572;2023-06-04T05:22:29;1.08;;;0.60;;
40489;SDS011;26196;52.302;10.572;2023-06-04T05:26:29;0.93;;;0.52;;
40489;SDS011;26196;52.302;10.572;2023-06-04T05:30:29;0.50;;;0.47;;
40489;SDS011;26196;52.302;10.572;2023-06-04T05:34:31;0.60;;;0.50;;
40489;SDS011;26196;52.302;10.572;2023-06-04T05:38:32;0.60;;;0.50;;
40489;SDS011;26196;52.302;10.572;2023-06-04T05:42:33;1.17;;;0.60;;
40489;SDS011;26196;52.302;10.572;2023-06-04T05:46:33;0.75;;;0.45;;
40489;SDS011;26196;52.302;10.572;2023-06-04T05:50:34;0.77;;;0.50;;
40489;SDS011;26196;52.302;10.572;2023-06-04T05:54:34;0.88;;;0.57;;
40489;SDS011;26196;52.302;10.572;2023-06-04T05:58:37;1.20;;;0.70;;
40489;SDS011;26196;52.302;10.572;2023-06-04T06:02:37;1.00;;;0.60;;
40489;SDS011;26196;52.302;10.572;2023-06-04T06:06:38;0.88;;;0.60;;
40489;SDS011;26196;52.302;10.572;2023-06-04T06:10:39;1.15;;;0.60;;
40489;SDS011;26196;52.302;10.572;2023-06-04T06:14:39;1.20;;;0.60;;
40489;SDS011;26196;52.302;10.572;2023-06-04T06:18:40;1.38;;;0.82;;
40489;SDS011;26196;52.302;10.572;2023-06-04T06:22:40;1.33;;;0.67;;
40489;SDS011;26196;52.302;10.572;2023-06-04T06:26:40;1.70;;;0.40;;
40489;SDS011;26196;52.302;10.572;2023-06-04T06:30:41;1.00;;;0.60;;
40489;SDS011;26196;52.302;10.572;2023-06-04T06:34:41;2.00;;;0.50;;
40489;SDS011;26196;52.302;10.572;2023-06-04T06:38:41;2.33;;;0.80;;
40489;SDS011;26196;52.302;10.572;2023-06-04T06:42:42;3.17;;;0.93;;
40489;SDS011;26196;52.302;10.572;2023-06-04T06:46:42;1.35;;;0.47;;
40489;SDS011;26196;52.302;10.572;2023-06-04T06:50:42;1.83;;;0.60;;
40489;SDS011;26196;52.302;10.572;2023-06-04T06:54:43;1.15;;;0.77;;
40489;SDS011;26196;52.302;10.572;2023-06-04T06:58:46;1.35;;;0.70;;
40489;SDS011;26196;52.302;10.572;2023-06-04T07:02:46;2.22;;;0.65;;
40489;SDS011;26196;52.302;10.572;2023-06-04T07:06:47;2.70;;;0.98;;
40489;SDS011;26196;52.302;10.572;2023-06-04T07:10:47;2.92;;;1.08;;
40489;SDS011;26196;52.302;10.572;2023-06-04T07:14:48;4.22;;;0.80;;
40489;SDS011;26196;52.302;10.572;2023-06-04T07:18:48;1.80;;;0.87;;
40489;SDS011;26196;52.302;10.572;2023-06-04T07:22:51;2.90;;;0.98;;
40489;SDS011;26196;52.302;10.572;2023-06-04T07:26:51;5.03;;;0.82;;
40489;SDS011;26196;52.302;10.572;2023-06-04T07:30:52;5.18;;;1.00;;
40489;SDS011;26196;52.302;10.572;2023-06-04T07:34:52;5.22;;;1.10;;
40489;SDS011;26196;52.302;10.572;2023-06-04T07:38:52;3.40;;;1.90;;
40489;SDS011;26196;52.302;10.572;2023-06-04T07:42:53;4.60;;;1.00;;
40489;SDS011;26196;52.302;10.572;2023-06-04T07:46:53;2.75;;;1.10;;
40489;SDS011;26196;52.302;10.572;2023-06-04T07:50:54;4.60;;;0.93;;
40489;SDS011;26196;52.302;10.572;2023-06-04T07:54:54;3.70;;;1.20;;
40489;SDS011;26196;52.302;10.572;2023-06-04T07:58:55;6.63;;;1.70;;
40489;SDS011;26196;52.302;10.572;2023-06-04T08:02:56;2.33;;;1.02;;
40489;SDS011;26196;52.302;10.572;2023-06-04T08:06:56;5.82;;;1.85;;
40489;SDS011;26196;52.302;10.572;2023-06-04T08:10:57;4.40;;;0.97;;
40489;SDS011;26196;52.302;10.572;2023-06-04T08:14:57;2.65;;;0.88;;
40489;SDS011;26196;52.302;10.572;2023-06-04T08:18:58;4.85;;;1.60;;
40489;SDS011;26196;52.302;10.572;2023-06-04T08:22:58;3.60;;;1.00;;
40489;SDS011;26196;52.302;10.572;2023-06-04T08:26:58;5.63;;;1.40;;
40489;SDS011;26196;52.302;10.572;2023-06-04T08:30:58;7.45;;;1.20;;
40489;SDS011;26196;52.302;10.572;2023-06-04T08:34:59;2.17;;;1.67;;
40489;SDS011;26196;52.302;10.572;2023-06-04T08:38:59;3.58;;;1.45;;
40489;SDS011;26196;52.302;10.572;2023-06-04T08:43:00;3.47;;;0.70;;
40489;SDS011;26196;52.302;10.572;2023-06-04T08:47:04;1.02;;;0.60;;
40489;SDS011;26196;52.302;10.572;2023-06-04T08:51:06;2.08;;;0.50;;
40489;SDS011;26196;52.302;10.572;2023-06-04T08:55:13;1.98;;;0.80;;
40489;SDS011;26196;52.302;10.572;2023-06-04T08:59:14;1.50;;;0.75;;
40489;SDS011;26196;52.302;10.572;2023-06-04T09:03:15;4.10;;;0.95;;
40489;SDS011;26196;52.302;10.572;2023-06-04T09:07:18;1.23;;;0.70;;
40489;SDS011;26196;52.302;10.572;2023-06-04T09:11:18;2.13;;;0.60;;
40489;SDS011;26196;52.302;10.572;2023-06-04T09:15:21;0.90;;;0.50;;
40489;SDS011;26196;52.302;10.572;2023-06-04T09:19:22;2.40;;;1.02;;
40489;SDS011;26196;52.302;10.572;2023-06-04T09:23:22;1.15;;;0.70;;
40489;SDS011;26196;52.302;10.572;2023-06-04T09:27:23;2.03;;;0.60;;
40489;SDS011;26196;52.302;10.572;2023-06-04T09:31:25;1.40;;;0.50;;
40489;SDS011;26196;52.302;10.572;2023-06-04T09:35:26;0.90;;;0.50;;
40489;SDS011;26196;52.302;10.572;2023-06-04T09:39:27;0.95;;;0.60;;
40489;SDS011;26196;52.302;10.572;2023-06-04T09:43:27;1.13;;;0.65;;
40489;SDS011;26196;52.302;10.572;2023-06-04T09:47:37;1.02;;;0.60;;
40489;SDS011;26196;52.302;10.572;2023-06-04T09:51:46;1.58;;;0.80;;
40489;SDS011;26196;52.302;10.572;2023-06-04T09:55:57;1.52;;;0.60;;
40489;SDS011;26196;52.302;10.572;2023-06-04T09:59:58;1.08;;;0.60;;
40489;SDS011;26196;52.302;10.572;2023-06-04T10:04:02;1.02;;;0.52;;
40489;SDS011;26196;52.302;10.572;2023-06-04T10:08:03;1.00;;;0.55;;
40489;SDS011;26196;52.302;10.572;2023-06-04T10:12:07;3.45;;;0.52;;
40489;SDS011;26196;52.302;10.572;2023-06-04T10:16:09;0.80;;;0.30;;
40489;SDS011;26196;52.302;10.572;2023-06-04T10:25:08;1.43;;;0.53;;
40489;SDS011;26196;52.302;10.572;2023-06-04T10:29:10;1.67;;;0.40;;
40489;SDS011;26196;52.302;10.572;2023-06-04T10:33:12;0.77;;;0.32;;
40489;SDS011;26196;52.302;10.572;2023-06-04T10:37:21;1.10;;;0.35;;
40489;SDS011;26196;52.302;10.572;2023-06-04T10:41:23;0.60;;;0.38;;
40489;SDS011;26196;52.302;10.572;2023-06-04T10:45:28;0.88;;;0.38;;
40489;SDS011;26196;52.302;10.572;2023-06-04T10:49:30;0.60;;;0.30;;
40489;SDS011;26196;52.302;10.572;2023-06-04T10:53:36;1.45;;;0.47;;
40489;SDS011;26196;52.302;10.572;2023-06-04T10:57:36;0.83;;;0.60;;
40489;SDS011;26196;52.302;10.572;2023-06-04T11:01:37;0.50;;;0.30;;
40489;SDS011;26196;52.302;10.572;2023-06-04T11:05:38;0.95;;;0.40;;
40489;SDS011;26196;52.302;10.572;2023-06-04T11:09:49;1.00;;;0.68;;
40489;SDS011;26196;52.302;10.572;2023-06-04T11:13:50;0.88;;;0.38;;
40489;SDS011;26196;52.302;10.572;2023-06-04T11:17:55;1.30;;;0.60;;
40489;SDS011;26196;52.302;10.572;2023-06-04T11:21:58;0.60;;;0.40;;
40489;SDS011;26196;52.302;10.572;2023-06-04T11:25:58;1.25;;;0.40;;
40489;SDS011;26196;52.302;10.572;2023-06-04T11:29:59;0.95;;;0.47;;
40489;SDS011;26196;52.302;10.572;2023-06-04T11:34:02;0.50;;;0.40;;
40489;SDS011;26196;52.302;10.572;2023-06-04T11:38:02;1.27;;;0.35;;
40489;SDS011;26196;52.302;10.572;2023-06-04T11:42:05;1.30;;;0.30;;
40489;SDS011;26196;52.302;10.572;2023-06-04T11:46:07;0.45;;;0.30;;
40489;SDS011;26196;52.302;10.572;2023-06-04T11:50:08;1.33;;;0.35;;
40489;SDS011;26196;52.302;10.572;2023-06-04T11:54:09;1.30;;;0.60;;
40489;SDS011;26196;52.302;10.572;2023-06-04T11:58:10;3.50;;;0.75;;
40489;SDS011;26196;52.302;10.572;2023-06-04T12:02:10;5.95;;;0.80;;
40489;SDS011;26196;52.302;10.572;2023-06-04T12:06:11;2.35;;;0.90;;
40489;SDS011;26196;52.302;10.572;2023-06-04T12:10:13;3.63;;;0.80;;
40489;SDS011;26196;52.302;10.572;2023-06-04T12:14:17;2.75;;;0.80;;
40489;SDS011;26196;52.302;10.572;2023-06-04T12:22:24;2.35;;;0.88;;
40489;SDS011;26196;52.302;10.572;2023-06-04T12:26:26;1.40;;;0.60;;
40489;SDS011;26196;52.302;10.572;2023-06-04T12:30:35;1.00;;;0.70;;
40489;SDS011;26196;52.302;10.572;2023-06-04T12:34:37;2.25;;;0.60;;
40489;SDS011;26196;52.302;10.572;2023-06-04T12:38:38;1.48;;;0.40;;
40489;SDS011;26196;52.302;10.572;2023-06-04T12:42:38;0.83;;;0.70;;
40489;SDS011;26196;52.302;10.572;2023-06-04T12:46:40;4.03;;;1.00;;
40489;SDS011;26196;52.302;10.572;2023-06-04T12:50:40;10.87;;;3.60;;
40489;SDS011;26196;52.302;10.572;2023-06-04T12:54:41;20.88;;;8.52;;
40489;SDS011;26196;52.302;10.572;2023-06-04T12:58:42;24.55;;;7.97;;
40489;SDS011;26196;52.302;10.572;2023-06-04T13:02:43;32.28;;;10.32;;
40489;SDS011;26196;52.302;10.572;2023-06-04T13:06:43;38.47;;;12.60;;
40489;SDS011;26196;52.302;10.572;2023-06-04T13:10:46;31.90;;;10.13;;
40489;SDS011;26196;52.302;10.572;2023-06-04T13:14:46;22.23;;;9.05;;
40489;SDS011;26196;52.302;10.572;2023-06-04T13:18:46;14.43;;;6.03;;
40489;SDS011;26196;52.302;10.572;2023-06-04T13:22:47;17.08;;;5.57;;
40489;SDS011;26196;52.302;10.572;2023-06-04T13:26:47;22.67;;;6.18;;
40489;SDS011;26196;52.302;10.572;2023-06-04T13:30:48;10.93;;;4.00;;
40489;SDS011;26196;52.302;10.572;2023-06-04T13:34:48;10.10;;;4.75;;
40489;SDS011;26196;52.302;10.572;2023-06-04T13:38:48;9.65;;;4.25;;
40489;SDS011;26196;52.302;10.572;2023-06-04T13:42:49;9.50;;;3.38;;
40489;SDS011;26196;52.302;10.572;2023-06-04T13:46:49;11.05;;;2.72;;
40489;SDS011;26196;52.302;10.572;2023-06-04T13:50:50;11.23;;;2.90;;
40489;SDS011;26196;52.302;10.572;2023-06-04T13:54:50;5.65;;;1.98;;
40489;SDS011;26196;52.302;10.572;2023-06-04T13:58:51;2.85;;;1.50;;
40489;SDS011;26196;52.302;10.572;2023-06-04T14:02:51;4.97;;;1.38;;
40489;SDS011;26196;52.302;10.572;2023-06-04T14:06:52;3.72;;;1.55;;
40489;SDS011;26196;52.302;10.572;2023-06-04T14:10:53;9.30;;;2.42;;
40489;SDS011;26196;52.302;10.572;2023-06-04T14:14:55;3.47;;;1.30;;
40489;SDS011;26196;52.302;10.572;2023-06-04T14:18:55;4.18;;;1.80;;
40489;SDS011;26196;52.302;10.572;2023-06-04T14:22:55;5.05;;;1.23;;
40489;SDS011;26196;52.302;10.572;2023-06-04T14:26:56;2.63;;;1.00;;
40489;SDS011;26196;52.302;10.572;2023-06-04T14:30:56;2.10;;;0.65;;
40489;SDS011;26196;52.302;10.572;2023-06-04T14:34:58;3.67;;;1.23;;
40489;SDS011;26196;52.302;10.572;2023-06-04T14:38:58;3.75;;;0.90;;
40489;SDS011;26196;52.302;10.572;2023-06-04T14:42:59;2.63;;;0.87;;
40489;SDS011;26196;52.302;10.572;2023-06-04T14:46:59;1.40;;;0.90;;
40489;SDS011;26196;52.302;10.572;2023-06-04T14:50:59;1.63;;;0.50;;
40489;SDS011;26196;52.302;10.572;2023-06-04T14:55:00;2.15;;;1.05;;
40489;SDS011;26196;52.302;10.572;2023-06-04T14:59:00;1.35;;;0.50;;
40489;SDS011;26196;52.302;10.572;2023-06-04T15:03:01;1.20;;;0.60;;
40489;SDS011;26196;52.302;10.572;2023-06-04T15:07:02;1.40;;;0.52;;
40489;SDS011;26196;52.302;10.572;2023-06-04T15:11:03;0.85;;;0.50;;
40489;SDS011;26196;52.302;10.572;2023-06-04T15:15:06;1.02;;;0.60;;
40489;SDS011;26196;52.302;10.572;2023-06-04T15:19:08;1.05;;;0.50;;
40489;SDS011;26196;52.302;10.572;2023-06-04T15:23:09;1.73;;;0.50;;
40489;SDS011;26196;52.302;10.572;2023-06-04T15:27:10;1.77;;;0.60;;
40489;SDS011;26196;52.302;10.572;2023-06-04T15:31:10;3.63;;;0.90;;
40489;SDS011;26196;52.302;10.572;2023-06-04T15:35:10;2.15;;;0.70;;
40489;SDS011;26196;52.302;10.572;2023-06-04T15:39:11;0.88;;;0.60;;
40489;SDS011;26196;52.302;10.572;2023-06-04T15:43:11;2.20;;;1.17;;
40489;SDS011;26196;52.302;10.572;2023-06-04T15:47:11;2.03;;;0.77;;
40489;SDS011;26196;52.302;10.572;2023-06-04T15:51:12;1.02;;;0.70;;
40489;SDS011;26196;52.302;10.572;2023-06-04T15:55:12;0.88;;;0.60;;
40489;SDS011;26196;52.302;10.572;2023-06-04T15:59:14;1.20;;;0.65;;
40489;SDS011;26196;52.302;10.572;2023-06-04T16:03:14;1.98;;;0.80;;
40489;SDS011;26196;52.302;10.572;2023-06-04T16:07:15;1.30;;;0.68;;
40489;SDS011;26196;52.302;10.572;2023-06-04T16:11:15;0.90;;;0.50;;
40489;SDS011;26196;52.302;10.572;2023-06-04T16:15:15;1.02;;;0.60;;
40489;SDS011;26196;52.302;10.572;2023-06-04T16:19:16;3.40;;;0.90;;
40489;SDS011;26196;52.302;10.572;2023-06-04T16:23:16;1.58;;;0.85;;
40489;SDS011;26196;52.302;10.572;2023-06-04T16:27:17;1.23;;;0.60;;
40489;SDS011;26196;52.302;10.572;2023-06-04T16:31:17;2.65;;;1.00;;
40489;SDS011;26196;52.302;10.572;2023-06-04T16:35:18;3.38;;;1.00;;
40489;SDS011;26196;52.302;10.572;2023-06-04T16:39:18;2.20;;;0.95;;
40489;SDS011;26196;52.302;10.572;2023-06-04T16:43:18;3.97;;;0.83;;
40489;SDS011;26196;52.302;10.572;2023-06-04T16:47:19;4.00;;;1.00;;
40489;SDS011;26196;52.302;10.572;2023-06-04T16:51:19;2.60;;;1.15;;
40489;SDS011;26196;52.302;10.572;2023-06-04T16:55:27;1.77;;;0.90;;
40489;SDS011;26196;52.302;10.572;2023-06-04T16:59:29;1.30;;;0.73;;
40489;SDS011;26196;52.302;10.572;2023-06-04T17:03:31;4.57;;;0.95;;
40489;SDS011;26196;52.302;10.572;2023-06-04T17:07:31;1.35;;;1.00;;
40489;SDS011;26196;52.302;10.572;2023-06-04T17:11:32;1.48;;;0.70;;
40489;SDS011;26196;52.302;10.572;2023-06-04T17:15:35;2.45;;;0.85;;
40489;SDS011;26196;52.302;10.572;2023-06-04T17:19:36;2.80;;;0.90;;
40489;SDS011;26196;52.302;10.572;2023-06-04T17:23:36;0.90;;;0.75;;
40489;SDS011;26196;52.302;10.572;2023-06-04T17:27:38;1.45;;;0.93;;
40489;SDS011;26196;52.302;10.572;2023-06-04T17:31:38;4.35;;;0.63;;
40489;SDS011;26196;52.302;10.572;2023-06-04T17:35:38;1.30;;;0.80;;
40489;SDS011;26196;52.302;10.572;2023-06-04T17:39:39;1.77;;;0.82;;
40489;SDS011;26196;52.302;10.572;2023-06-04T17:43:40;1.15;;;0.60;;
40489;SDS011;26196;52.302;10.572;2023-06-04T17:47:41;1.65;;;0.80;;
40489;SDS011;26196;52.302;10.572;2023-06-04T17:51:42;2.28;;;0.90;;
40489;SDS011;26196;52.302;10.572;2023-06-04T17:55:42;7.18;;;1.45;;
40489;SDS011;26196;52.302;10.572;2023-06-04T17:59:43;10.68;;;1.15;;
40489;SDS011;26196;52.302;10.572;2023-06-04T18:03:43;6.53;;;0.88;;
40489;SDS011;26196;52.302;10.572;2023-06-04T18:07:49;9.52;;;1.33;;
40489;SDS011;26196;52.302;10.572;2023-06-04T18:11:50;9.25;;;1.25;;
40489;SDS011;26196;52.302;10.572;2023-06-04T18:15:50;6.00;;;0.90;;
40489;SDS011;26196;52.302;10.572;2023-06-04T18:19:50;8.65;;;1.63;;
40489;SDS011;26196;52.302;10.572;2023-06-04T18:23:52;4.05;;;1.17;;
40489;SDS011;26196;52.302;10.572;2023-06-04T18:27:53;3.85;;;1.00;;
40489;SDS011;26196;52.302;10.572;2023-06-04T18:31:53;5.40;;;1.20;;
40489;SDS011;26196;52.302;10.572;2023-06-04T18:35:54;6.28;;;1.33;;
40489;SDS011;26196;52.302;10.572;2023-06-04T18:39:54;5.25;;;1.02;;
40489;SDS011;26196;52.302;10.572;2023-06-04T18:43:55;3.63;;;1.30;;
40489;SDS011;26196;52.302;10.572;2023-06-04T18:47:55;9.68;;;1.55;;
40489;SDS011;26196;52.302;10.572;2023-06-04T18:51:55;3.27;;;0.90;;
40489;SDS011;26196;52.302;10.572;2023-06-04T18:55:56;4.25;;;1.23;;
40489;SDS011;26196;52.302;10.572;2023-06-04T18:59:57;4.05;;;1.13;;
40489;SDS011;26196;52.302;10.572;2023-06-04T19:03:57;2.85;;;1.08;;
40489;SDS011;26196;52.302;10.572;2023-06-04T19:07:58;2.40;;;1.03;;
40489;SDS011;26196;52.302;10.572;2023-06-04T19:11:58;4.82;;;1.27;;
40489;SDS011;26196;52.302;10.572;2023-06-04T19:15:59;6.90;;;1.30;;
40489;SDS011;26196;52.302;10.572;2023-06-04T19:20:02;4.38;;;0.95;;
40489;SDS011;26196;52.302;10.572;2023-06-04T19:24:03;2.97;;;1.08;;
40489;SDS011;26196;52.302;10.572;2023-06-04T19:28:05;4.65;;;1.38;;
40489;SDS011;26196;52.302;10.572;2023-06-04T19:32:05;4.65;;;0.93;;
40489;SDS011;26196;52.302;10.572;2023-06-04T19:36:06;4.28;;;1.20;;
40489;SDS011;26196;52.302;10.572;2023-06-04T19:40:06;6.47;;;1.52;;
40489;SDS011;26196;52.302;10.572;2023-06-04T19:44:07;6.38;;;1.55;;
40489;SDS011;26196;52.302;10.572;2023-06-04T19:48:08;5.40;;;1.15;;
40489;SDS011;26196;52.302;10.572;2023-06-04T19:52:08;6.57;;;1.52;;
40489;SDS011;26196;52.302;10.572;2023-06-04T19:56:09;5.35;;;1.60;;
40489;SDS011;26196;52.302;10.572;2023-06-04T20:00:10;4.72;;;1.40;;
40489;SDS011;26196;52.302;10.572;2023-06-04T20:04:11;3.53;;;1.17;;
40489;SDS011;26196;52.302;10.572;2023-06-04T20:08:12;7.85;;;1.50;;
40489;SDS011;26196;52.302;10.572;2023-06-04T20:12:13;3.90;;;1.42;;
40489;SDS011;26196;52.302;10.572;2023-06-04T20:16:16;4.07;;;1.58;;
40489;SDS011;26196;52.302;10.572;2023-06-04T20:20:16;4.00;;;1.05;;
40489;SDS011;26196;52.302;10.572;2023-06-04T20:24:17;8.35;;;1.40;;
40489;SDS011;26196;52.302;10.572;2023-06-04T20:28:17;2.90;;;1.20;;
40489;SDS011;26196;52.302;10.572;2023-06-04T20:32:17;2.03;;;0.82;;
40489;SDS011;26196;52.302;10.572;2023-06-04T20:36:18;2.88;;;1.13;;
40489;SDS011;26196;52.302;10.572;2023-06-04T20:40:18;3.17;;;0.80;;
40489;SDS011;26196;52.302;10.572;2023-06-04T20:44:19;1.50;;;1.40;;
40489;SDS011;26196;52.302;10.572;2023-06-04T20:48:19;1.67;;;1.17;;
40489;SDS011;26196;52.302;10.572;2023-06-04T20:52:20;2.70;;;0.90;;
40489;SDS011;26196;52.302;10.572;2023-06-04T20:56:20;2.13;;;0.82;;
40489;SDS011;26196;52.302;10.572;2023-06-04T21:00:22;2.22;;;0.95;;
40489;SDS011;26196;52.302;10.572;2023-06-04T21:04:25;2.78;;;0.60;;
40489;SDS011;26196;52.302;10.572;2023-06-04T21:08:26;2.27;;;0.70;;
40489;SDS011;26196;52.302;10.572;2023-06-04T21:12:26;2.25;;;1.10;;
40489;SDS011;26196;52.302;10.572;2023-06-04T21:16:26;3.60;;;1.13;;
40489;SDS011;26196;52.302;10.572;2023-06-04T21:20:26;1.60;;;0.60;;
40489;SDS011;26196;52.302;10.572;2023-06-04T21:24:27;2.67;;;0.90;;
40489;SDS011;26196;52.302;10.572;2023-06-04T21:28:27;1.50;;;1.00;;
40489;SDS011;26196;52.302;10.572;2023-06-04T21:32:27;1.52;;;0.90;;
40489;SDS011;26196;52.302;10.572;2023-06-04T21:36:28;2.45;;;1.02;;
40489;SDS011;26196;52.302;10.572;2023-06-04T21:40:29;2.38;;;0.82;;
40489;SDS011;26196;52.302;10.572;2023-06-04T21:44:29;1.45;;;0.73;;
40489;SDS011;26196;52.302;10.572;2023-06-04T21:48:30;1.17;;;0.70;;
40489;SDS011;26196;52.302;10.572;2023-06-04T21:52:30;3.08;;;0.90;;
40489;SDS011;26196;52.302;10.572;2023-06-04T21:56:31;1.38;;;0.80;;
40489;SDS011;26196;52.302;10.572;2023-06-04T22:00:31;4.00;;;1.07;;
40489;SDS011;26196;52.302;10.572;2023-06-04T22:04:31;1.45;;;0.95;;
40489;SDS011;26196;52.302;10.572;2023-06-04T22:08:32;1.13;;;0.80;;
40489;SDS011;26196;52.302;10.572;2023-06-04T22:12:32;1.37;;;0.90;;
40489;SDS011;26196;52.302;10.572;2023-06-04T22:16:32;1.33;;;0.80;;
40489;SDS011;26196;52.302;10.572;2023-06-04T22:20:32;1.60;;;0.70;;
40489;SDS011;26196;52.302;10.572;2023-06-04T22:24:33;1.23;;;0.83;;
40489;SDS011;26196;52.302;10.572;2023-06-04T22:28:33;1.48;;;0.77;;
40489;SDS011;26196;52.302;10.572;2023-06-04T22:32:33;1.17;;;0.77;;
40489;SDS011;26196;52.302;10.572;2023-06-04T22:36:34;0.98;;;0.80;;
40489;SDS011;26196;52.302;10.572;2023-06-04T22:40:34;1.83;;;1.10;;
40489;SDS011;26196;52.302;10.572;2023-06-04T22:44:35;1.20;;;0.87;;
40489;SDS011;26196;52.302;10.572;2023-06-04T22:48:35;1.23;;;0.80;;
40489;SDS011;26196;52.302;10.572;2023-06-04T22:52:35;1.60;;;0.65;;
40489;SDS011;26196;52.302;10.572;2023-06-04T22:56:39;1.17;;;0.60;;
40489;SDS011;26196;52.302;10.572;2023-06-04T23:00:40;1.50;;;0.83;;
40489;SDS011;26196;52.302;10.572;2023-06-04T23:04:42;1.20;;;0.60;;
40489;SDS011;26196;52.302;10.572;2023-06-04T23:08:43;1.17;;;0.73;;
40489;SDS011;26196;52.302;10.572;2023-06-04T23:12:44;1.05;;;0.80;;
40489;SDS011;26196;52.302;10.572;2023-06-04T23:16:45;0.98;;;0.70;;
40489;SDS011;26196;52.302;10.572;2023-06-04T23:20:46;1.73;;;1.00;;
40489;SDS011;26196;52.302;10.572;2023-06-04T23:24:46;1.67;;;0.70;;
40489;SDS011;26196;52.302;10.572;2023-06-04T23:28:46;1.67;;;0.90;;
40489;SDS011;26196;52.302;10.572;2023-06-04T23:32:46;1.07;;;0.70;;
40489;SDS011;26196;52.302;10.572;2023-06-04T23:36:48;1.50;;;0.80;;
40489;SDS011;26196;52.302;10.572;2023-06-04T23:40:48;2.75;;;1.23;;
40489;SDS011;26196;52.302;10.572;2023-06-04T23:44:49;0.60;;;0.50;;
40489;SDS011;26196;52.302;10.572;2023-06-04T23:48:49;2.08;;;0.82;;
40489;SDS011;26196;52.302;10.572;2023-06-04T23:52:49;1.20;;;1.00;;
40489;SDS011;26196;52.302;10.572;2023-06-04T23:56:50;1.25;;;0.73;;
